Time;durP1;ratioP1;P1;durP2;ratioP2;P2;SDS_P1;SDS_P2;PMS_P1;PMS_P2;Temp;Humidity;BMP_temperature;BMP_pressure;BME280_temperature;BME280_humidity;BME280_pressure;Samples;Min_cycle;Max_cycle;Signal;HPM_P1;HPM_P2
2022/10/18 00:00:47;;;;;;;16.00;11.88;;;15.80;99.90;;;;;;5003317;28;20223;-70
2022/10/18 00:03:14;;;;;;;17.63;13.35;;;15.80;99.90;;;;;;5005101;28;20200;-69
2022/10/18 00:05:41;;;;;;;14.27;12.75;;;15.90;99.90;;;;;;5033756;28;20261;-70
2022/10/18 00:08:08;;;;;;;17.10;12.82;;;15.90;99.90;;;;;;5033980;28;20251;-71
2022/10/18 00:10:35;;;;;;;16.15;11.93;;;15.90;99.90;;;;;;5003893;28;20614;-71
2022/10/18 00:13:02;;;;;;;13.55;11.38;;;15.90;99.90;;;;;;5007513;28;20200;-73
2022/10/18 00:15:29;;;;;;;15.63;12.20;;;15.90;99.90;;;;;;4999818;28;20703;-70
2022/10/18 00:17:55;;;;;;;13.13;11.77;;;16.00;1.00;;;;;;5018956;28;20537;-73
2022/10/18 00:20:22;;;;;;;15.90;12.15;;;15.90;1.00;;;;;;5004439;28;20284;-69
2022/10/18 00:22:49;;;;;;;13.77;12.10;;;15.90;1.00;;;;;;5003590;28;20217;-69
2022/10/18 00:25:17;;;;;;;16.60;13.25;;;15.90;1.00;;;;;;5003752;28;20682;-71
2022/10/18 00:27:44;;;;;;;18.15;13.60;;;15.90;1.00;;;;;;5018969;28;20209;-70
2022/10/18 00:30:12;;;;;;;16.13;13.20;;;15.90;1.00;;;;;;5008842;28;20198;-72
2022/10/18 00:32:41;;;;;;;15.60;13.02;;;15.90;1.00;;;;;;5019526;28;20198;-71
2022/10/18 00:35:08;;;;;;;16.02;13.38;;;15.90;1.00;;;;;;5010053;28;20258;-76
2022/10/18 00:37:35;;;;;;;18.63;13.52;;;15.90;1.00;;;;;;4986543;28;20225;-77
2022/10/18 00:40:03;;;;;;;15.15;13.32;;;15.70;1.00;;;;;;5035376;28;20307;-74
2022/10/18 00:42:33;;;;;;;15.95;12.48;;;15.70;1.00;;;;;;5019517;28;20907;-73
2022/10/18 00:45:05;;;;;;;15.35;13.25;;;15.70;1.00;;;;;;5005127;28;20742;-73
2022/10/18 00:47:34;;;;;;;18.48;13.52;;;15.70;1.00;;;;;;5005018;28;20255;-71
2022/10/18 00:50:04;;;;;;;14.38;12.90;;;15.70;1.00;;;;;;5003243;28;20202;-72
2022/10/18 00:52:53;;;;;;;17.25;14.07;;;15.70;37.40;;;;;;5003836;28;20228;-72
2022/10/18 00:55:20;;;;;;;17.10;12.52;;;15.80;99.90;;;;;;5003664;28;20203;-71
2022/10/18 00:57:48;;;;;;;17.05;11.98;;;15.80;99.90;;;;;;5016576;28;20263;-70
2022/10/18 01:00:17;;;;;;;15.88;11.95;;;15.80;99.90;;;;;;5034767;28;20211;-71
2022/10/18 01:02:45;;;;;;;13.85;11.63;;;15.80;99.90;;;;;;5004382;28;20223;-71
2022/10/18 01:05:15;;;;;;;13.50;11.55;;;15.90;99.90;;;;;;5024311;28;20620;-71
2022/10/18 01:07:55;;;;;;;15.80;11.77;;;15.80;1.00;;;;;;5024558;28;20239;-71
2022/10/18 01:10:44;;;;;;;13.98;11.88;;;15.80;99.90;;;;;;5000318;28;20193;-72
2022/10/18 01:13:20;;;;;;;15.18;11.10;;;15.80;99.90;;;;;;5034405;28;20228;-72
2022/10/18 01:16:10;;;;;;;16.63;11.50;;;15.80;99.90;;;;;;5001245;28;20221;-69
2022/10/18 01:19:00;;;;;;;12.32;11.13;;;15.80;99.90;;;;;;5017941;28;20296;-69
2022/10/18 01:21:41;;;;;;;16.45;11.88;;;15.90;99.90;;;;;;5000379;28;20213;-70
2022/10/18 01:24:11;;;;;;;11.93;10.73;;;15.90;99.90;;;;;;5002953;28;20220;-71
2022/10/18 01:27:15;;;;;;;14.23;10.63;;;15.90;74.00;;;;;;5000128;28;20244;-71
2022/10/18 01:29:57;;;;;;;13.70;10.95;;;15.80;1.00;;;;;;5016329;28;20299;-71
2022/10/18 01:32:35;;;;;;;11.40;10.15;;;15.70;1.00;;;;;;5002032;28;20260;-72
2022/10/18 01:35:10;;;;;;;11.40;10.23;;;15.60;1.00;;;;;;4986300;28;20205;-72
2022/10/18 01:37:39;;;;;;;15.35;11.48;;;15.60;1.00;;;;;;5009455;28;20196;-72
2022/10/18 01:40:08;;;;;;;13.20;11.68;;;15.60;1.00;;;;;;5002923;28;20241;-73
2022/10/18 01:42:35;;;;;;;15.25;10.75;;;15.60;1.00;;;;;;5033603;28;20220;-73
2022/10/18 01:45:03;;;;;;;13.65;11.27;;;15.60;1.00;;;;;;5017843;28;20229;-70
2022/10/18 01:47:30;;;;;;;14.57;10.90;;;15.60;1.00;;;;;;4998849;28;20318;-73
2022/10/18 01:50:00;;;;;;;11.63;9.07;;;15.50;1.00;;;;;;4999585;28;20212;-73
2022/10/18 01:52:27;;;;;;;12.55;11.25;;;15.50;99.90;;;;;;5029475;28;20197;-72
2022/10/18 01:54:55;;;;;;;13.77;12.02;;;15.60;99.90;;;;;;4999448;28;20197;-71
2022/10/18 01:57:37;;;;;;;13.57;10.77;;;15.70;1.00;;;;;;5030623;28;21066;-72
2022/10/18 02:00:23;;;;;;;15.32;11.93;;;15.70;1.00;;;;;;5016957;28;20195;-70
2022/10/18 02:03:01;;;;;;;12.30;10.77;;;15.70;1.00;;;;;;5033320;28;20318;-67
2022/10/18 02:05:55;;;;;;;14.20;12.52;;;15.80;1.00;;;;;;5014161;28;20193;-67
2022/10/18 02:08:29;;;;;;;16.40;12.18;;;15.80;1.00;;;;;;5013668;28;20225;-67
2022/10/18 02:10:56;;;;;;;16.10;11.57;;;15.80;1.00;;;;;;5000489;28;20203;-66
2022/10/18 02:13:28;;;;;;;13.57;11.90;;;15.70;99.90;;;;;;5033187;28;20243;-66
2022/10/18 02:16:02;;;;;;;14.90;12.75;;;15.70;99.90;;;;;;4997874;28;20229;-66
2022/10/18 02:18:35;;;;;;;15.93;12.40;;;15.70;99.90;;;;;;5000318;28;20280;-66
2022/10/18 02:21:07;;;;;;;15.27;11.90;;;15.70;99.90;;;;;;4994572;28;20228;-65
2022/10/18 02:23:35;;;;;;;17.48;14.68;;;15.60;99.90;;;;;;4999846;28;20301;-68
2022/10/18 02:26:02;;;;;;;16.40;13.90;;;15.60;99.90;;;;;;5032758;28;20276;-64
2022/10/18 02:28:29;;;;;;;16.15;13.18;;;15.70;1.00;;;;;;5013228;28;20666;-67
2022/10/18 02:30:58;;;;;;;17.35;14.95;;;15.70;1.00;;;;;;5005628;28;20193;-65
2022/10/18 02:33:44;;;;;;;21.25;18.48;;;15.70;1.00;;;;;;4996403;28;20668;-69
2022/10/18 02:36:47;;;;;;;22.52;17.92;;;15.70;1.00;;;;;;5013874;28;20194;-69
2022/10/18 02:39:19;;;;;;;21.13;17.60;;;15.70;1.00;;;;;;4998069;28;20929;-68
2022/10/18 02:41:46;;;;;;;19.52;14.40;;;15.80;1.00;;;;;;4997132;28;20237;-69
2022/10/18 02:44:14;;;;;;;18.08;16.13;;;15.70;1.00;;;;;;5012889;28;20189;-69
2022/10/18 02:46:41;;;;;;;18.77;15.63;;;15.60;99.90;;;;;;5004891;28;20216;-69
2022/10/18 02:49:08;;;;;;;20.55;16.27;;;15.60;99.90;;;;;;4998602;28;20208;-70
2022/10/18 02:51:35;;;;;;;17.52;15.57;;;15.60;99.90;;;;;;4995060;28;20197;-69
2022/10/18 02:54:02;;;;;;;18.10;14.65;;;15.60;99.90;;;;;;4997209;28;20845;-69
2022/10/18 02:56:29;;;;;;;19.67;13.18;;;15.60;99.90;;;;;;4996311;28;20242;-68
2022/10/18 02:58:56;;;;;;;17.58;12.38;;;15.50;66.20;;;;;;5014248;28;20212;-68
2022/10/18 03:01:23;;;;;;;14.50;12.63;;;15.50;99.90;;;;;;4997787;28;20211;-67
2022/10/18 03:03:50;;;;;;;12.32;11.13;;;15.50;99.90;;;;;;4996153;28;20260;-69
2022/10/18 03:06:17;;;;;;;15.05;11.50;;;15.60;1.00;;;;;;4998248;28;20216;-68
2022/10/18 03:08:44;;;;;;;14.48;11.35;;;15.50;99.90;;;;;;5029866;28;20224;-69
2022/10/18 03:11:12;;;;;;;13.63;11.95;;;15.50;99.90;;;;;;5013256;28;20288;-68
2022/10/18 03:13:38;;;;;;;14.07;11.98;;;15.50;99.90;;;;;;5012519;28;20194;-68
2022/10/18 03:16:05;;;;;;;12.77;10.48;;;15.50;1.00;;;;;;5013462;28;20690;-68
2022/10/18 03:18:32;;;;;;;12.65;11.32;;;15.60;1.00;;;;;;5005592;28;20209;-70
2022/10/18 03:21:06;;;;;;;14.65;11.68;;;15.60;99.90;;;;;;4998123;28;20207;-70
2022/10/18 03:23:34;;;;;;;13.27;10.98;;;15.70;1.00;;;;;;4997499;28;20300;-69
2022/10/18 03:26:01;;;;;;;13.90;12.43;;;15.60;1.00;;;;;;4997755;28;20197;-69
2022/10/18 03:28:28;;;;;;;13.98;11.68;;;15.60;1.00;;;;;;5004773;28;20193;-70
2022/10/18 03:31:00;;;;;;;13.15;10.80;;;15.60;1.00;;;;;;5014474;28;20232;-69
2022/10/18 03:33:29;;;;;;;15.13;11.82;;;15.60;99.90;;;;;;5013747;28;20206;-68
2022/10/18 03:35:56;;;;;;;18.17;13.35;;;15.60;99.90;;;;;;5032734;28;20209;-68
2022/10/18 03:38:23;;;;;;;14.20;12.05;;;15.50;1.00;;;;;;5007208;28;20743;-69
2022/10/18 03:40:50;;;;;;;19.88;12.50;;;15.40;1.00;;;;;;5001440;28;20200;-70
2022/10/18 03:43:17;;;;;;;12.77;11.25;;;15.30;1.00;;;;;;5002157;28;20304;-69
2022/10/18 03:45:44;;;;;;;20.15;13.68;;;15.30;80.00;;;;;;5000175;28;20280;-70
2022/10/18 03:48:11;;;;;;;17.17;13.32;;;15.30;66.00;;;;;;5002523;28;20969;-68
2022/10/18 03:50:38;;;;;;;16.45;13.88;;;15.20;99.90;;;;;;5023947;28;20193;-67
2022/10/18 03:53:05;;;;;;;18.27;14.57;;;15.10;99.90;;;;;;5002616;28;20207;-69
2022/10/18 03:55:32;;;;;;;16.30;13.82;;;15.10;1.00;;;;;;5032551;28;20205;-68
2022/10/18 03:57:59;;;;;;;17.90;14.50;;;15.10;1.00;;;;;;5009823;28;20228;-68
2022/10/18 04:00:26;;;;;;;24.25;18.17;;;15.20;99.90;;;;;;5002752;28;20694;-67
2022/10/18 04:02:53;;;;;;;24.08;16.20;;;15.30;1.00;;;;;;5034846;28;20223;-67
2022/10/18 04:05:27;;;;;;;23.05;15.27;;;15.30;1.00;;;;;;5002086;28;20201;-67
2022/10/18 04:07:54;;;;;;;17.80;14.32;;;15.30;1.00;;;;;;5016581;28;20262;-68
2022/10/18 04:10:21;;;;;;;21.15;16.02;;;15.30;1.00;;;;;;5002500;28;20307;-68
2022/10/18 04:12:50;;;;;;;18.02;14.77;;;15.30;1.00;;;;;;5030290;28;20279;-69
2022/10/18 04:15:17;;;;;;;14.63;12.68;;;15.40;1.00;;;;;;5015782;28;20280;-66
2022/10/18 04:17:44;;;;;;;14.98;12.63;;;15.30;1.00;;;;;;5000100;28;20213;-67
2022/10/18 04:20:12;;;;;;;19.50;13.40;;;15.40;1.00;;;;;;5032467;28;20206;-69
2022/10/18 04:22:39;;;;;;;15.52;13.50;;;15.40;1.00;;;;;;5016279;28;20220;-68
2022/10/18 04:25:06;;;;;;;15.80;14.13;;;15.50;1.00;;;;;;4998010;28;20194;-66
2022/10/18 04:27:34;;;;;;;15.98;14.27;;;15.40;1.00;;;;;;5000806;28;20211;-68
2022/10/18 04:30:01;;;;;;;17.42;14.57;;;15.40;82.90;;;;;;5032824;28;20205;-68
2022/10/18 04:32:28;;;;;;;18.40;15.13;;;15.30;1.00;;;;;;4998380;28;20290;-68
2022/10/18 04:34:55;;;;;;;20.08;16.50;;;15.20;1.00;;;;;;5001556;28;20211;-67
2022/10/18 04:37:22;;;;;;;21.40;15.90;;;15.30;1.00;;;;;;4998723;28;20195;-71
2022/10/18 04:39:49;;;;;;;21.48;16.20;;;15.20;99.90;;;;;;4998837;28;20201;-71
2022/10/18 04:42:20;;;;;;;22.20;16.80;;;15.20;1.00;;;;;;5001413;28;20225;-71
2022/10/18 04:44:47;;;;;;;19.75;15.93;;;15.20;1.00;;;;;;5001269;28;20729;-71
2022/10/18 04:47:15;;;;;;;24.27;16.27;;;15.20;1.00;;;;;;4999506;28;20205;-71
2022/10/18 04:49:42;;;;;;;20.35;16.45;;;15.20;1.00;;;;;;4995889;28;20198;-71
2022/10/18 04:52:09;;;;;;;19.58;15.98;;;15.20;1.00;;;;;;4999040;28;20744;-71
2022/10/18 04:54:36;;;;;;;21.05;16.55;;;15.20;1.00;;;;;;5001009;28;20232;-71
2022/10/18 04:57:03;;;;;;;21.67;17.33;;;15.20;1.00;;;;;;5002877;28;20293;-71
2022/10/18 04:59:30;;;;;;;21.52;16.23;;;15.10;1.00;;;;;;5001419;28;20942;-71
2022/10/18 05:01:57;;;;;;;21.92;16.40;;;15.20;99.90;;;;;;5013517;28;20582;-71
2022/10/18 05:04:24;;;;;;;20.08;16.42;;;15.20;1.00;;;;;;4998871;28;20208;-71
2022/10/18 05:06:51;;;;;;;21.92;17.58;;;15.30;1.00;;;;;;5001305;28;20239;-71
2022/10/18 05:09:18;;;;;;;29.05;20.65;;;15.30;1.00;;;;;;5015105;28;20201;-71
2022/10/18 05:11:45;;;;;;;29.23;22.92;;;15.30;1.00;;;;;;5001487;28;20230;-71
2022/10/18 05:14:12;;;;;;;33.53;26.08;;;15.40;90.90;;;;;;5032594;28;20407;-71
2022/10/18 05:16:39;;;;;;;23.92;18.25;;;15.30;99.90;;;;;;5000902;28;20687;-71
2022/10/18 05:19:06;;;;;;;28.35;21.40;;;15.30;1.00;;;;;;5014258;28;20244;-71
2022/10/18 05:21:33;;;;;;;19.42;15.98;;;15.30;1.00;;;;;;5006211;28;20567;-71
2022/10/18 05:24:00;;;;;;;20.83;16.08;;;15.30;1.00;;;;;;5014591;28;20617;-71
2022/10/18 05:26:27;;;;;;;19.48;15.10;;;15.30;1.00;;;;;;5031225;28;20209;-71
2022/10/18 05:28:54;;;;;;;20.80;15.68;;;15.20;99.90;;;;;;5015092;28;20791;-71
2022/10/18 05:31:21;;;;;;;19.15;15.40;;;15.20;1.00;;;;;;4997170;28;20762;-71
2022/10/18 05:33:47;;;;;;;18.77;16.23;;;15.20;99.90;;;;;;4998334;28;20207;-71
2022/10/18 05:36:15;;;;;;;17.08;15.15;;;15.30;1.00;;;;;;5015357;28;20204;-71
2022/10/18 05:38:42;;;;;;;19.83;15.70;;;15.30;1.00;;;;;;5026380;28;20205;-71
2022/10/18 05:41:10;;;;;;;19.92;14.95;;;15.30;1.00;;;;;;5011655;28;20220;-71
2022/10/18 05:43:38;;;;;;;17.48;15.05;;;15.30;1.00;;;;;;4997212;28;20231;-71
2022/10/18 05:46:07;;;;;;;19.65;15.25;;;15.40;1.00;;;;;;5000603;28;20193;-71
2022/10/18 05:48:42;;;;;;;16.38;14.48;;;15.40;38.80;;;;;;5031607;28;20210;-71
2022/10/18 05:51:09;;;;;;;18.95;14.07;;;15.40;1.00;;;;;;4997885;28;20280;-71
2022/10/18 05:53:36;;;;;;;17.38;14.48;;;15.40;1.00;;;;;;4999236;28;20287;-71
2022/10/18 05:56:05;;;;;;;17.35;15.30;;;15.30;1.00;;;;;;5000497;28;20201;-71
2022/10/18 05:58:33;;;;;;;16.10;12.73;;;15.30;1.00;;;;;;5015276;28;20299;-71
2022/10/18 06:01:01;;;;;;;16.30;13.98;;;15.20;99.90;;;;;;4999495;28;20199;-71
2022/10/18 06:03:29;;;;;;;15.35;13.52;;;15.20;99.90;;;;;;4989556;28;20248;-71
2022/10/18 06:06:05;;;;;;;17.17;13.82;;;15.20;99.90;;;;;;5027911;28;20627;-71
2022/10/18 06:08:33;;;;;;;18.13;13.52;;;15.30;1.00;;;;;;5024688;28;20267;-71
2022/10/18 06:11:08;;;;;;;20.73;14.10;;;15.30;1.00;;;;;;5030598;28;20196;-71
2022/10/18 06:13:40;;;;;;;32.92;29.60;;;15.30;1.00;;;;;;4999187;28;20675;-71
2022/10/18 06:16:07;;;;;;;22.08;16.42;;;15.30;1.00;;;;;;5000911;28;20201;-71
2022/10/18 06:18:34;;;;;;;18.27;13.90;;;15.30;99.90;;;;;;4999382;28;20220;-71
2022/10/18 06:21:01;;;;;;;20.40;14.60;;;15.20;1.00;;;;;;4997296;28;20447;-71
2022/10/18 06:23:32;;;;;;;23.48;15.65;;;15.20;1.00;;;;;;5005683;28;20214;-71
2022/10/18 06:26:06;;;;;;;17.63;15.45;;;15.20;1.00;;;;;;5003903;28;20202;-72
2022/10/18 06:28:38;;;;;;;16.13;14.35;;;15.30;91.90;;;;;;5005076;28;20205;-71
2022/10/18 06:31:05;;;;;;;19.67;13.95;;;15.30;9.90;;;;;;5014805;28;20193;-71
2022/10/18 06:33:34;;;;;;;22.05;14.10;;;15.30;1.00;;;;;;5004824;28;20573;-70
2022/10/18 06:36:04;;;;;;;25.02;15.27;;;15.30;1.00;;;;;;4995853;28;20221;-71
2022/10/18 06:38:32;;;;;;;20.15;14.43;;;15.30;99.90;;;;;;4995145;28;20208;-71
2022/10/18 06:40:59;;;;;;;26.70;16.70;;;15.30;99.90;;;;;;4996971;28;20638;-68
2022/10/18 06:43:26;;;;;;;23.85;20.50;;;15.30;99.90;;;;;;5026684;28;20893;-68
2022/10/18 06:45:54;;;;;;;22.20;17.63;;;15.40;99.90;;;;;;4994655;28;20814;-69
2022/10/18 06:48:21;;;;;;;20.48;15.20;;;15.40;99.90;;;;;;4999155;28;20284;-68
2022/10/18 06:50:57;;;;;;;22.63;17.05;;;15.40;60.00;;;;;;5005172;28;20209;-68
2022/10/18 06:53:25;;;;;;;17.58;15.68;;;15.40;1.00;;;;;;4999516;28;20210;-68
2022/10/18 06:55:59;;;;;;;21.05;14.77;;;15.40;1.00;;;;;;4998624;28;20284;-69
2022/10/18 06:58:27;;;;;;;20.17;15.60;;;15.40;1.00;;;;;;4997207;28;20215;-69
2022/10/18 07:00:54;;;;;;;21.27;14.52;;;15.40;1.00;;;;;;4999612;28;20197;-69
2022/10/18 07:03:21;;;;;;;17.10;13.93;;;15.50;1.00;;;;;;4999860;28;20221;-69
2022/10/18 07:05:51;;;;;;;18.60;13.00;;;15.50;1.00;;;;;;5028341;28;20745;-68
2022/10/18 07:08:18;;;;;;;20.40;13.73;;;15.60;99.90;;;;;;4997503;28;20221;-69
2022/10/18 07:10:52;;;;;;;19.08;14.25;;;15.60;99.90;;;;;;5015128;28;20301;-69
2022/10/18 07:13:20;;;;;;;18.60;13.65;;;15.70;99.90;;;;;;5008586;28;20497;-68
2022/10/18 07:16:09;;;;;;;16.02;13.35;;;15.70;99.90;;;;;;5000425;28;20600;-68
2022/10/18 07:18:44;;;;;;;16.52;13.18;;;15.70;99.90;;;;;;5018518;28;20220;-69
2022/10/18 07:21:14;;;;;;;18.88;14.10;;;15.70;1.00;;;;;;5002318;28;20212;-68
2022/10/18 07:23:42;;;;;;;21.75;13.98;;;15.70;1.00;;;;;;5001335;28;20248;-68
2022/10/18 07:26:25;;;;;;;21.80;14.38;;;15.70;1.00;;;;;;5000281;28;20225;-68
2022/10/18 07:28:56;;;;;;;19.05;12.38;;;15.70;1.00;;;;;;5035449;28;20200;-70
2022/10/18 07:31:24;;;;;;;25.38;15.32;;;15.80;1.00;;;;;;4999975;28;20205;-68
2022/10/18 07:33:52;;;;;;;22.83;15.13;;;15.70;1.00;;;;;;5003276;28;20205;-67
2022/10/18 07:36:20;;;;;;;22.45;15.30;;;15.70;1.00;;;;;;5003613;28;20207;-68
2022/10/18 07:38:48;;;;;;;22.77;14.95;;;15.60;1.00;;;;;;5002800;28;20248;-68
2022/10/18 07:41:15;;;;;;;22.88;15.82;;;15.70;1.00;;;;;;5014171;28;20203;-69
2022/10/18 07:43:45;;;;;;;20.05;15.25;;;15.70;1.00;;;;;;5007991;28;20228;-68
2022/10/18 07:46:13;;;;;;;21.70;14.65;;;15.70;56.20;;;;;;5000432;28;20216;-67
2022/10/18 07:48:41;;;;;;;19.30;15.25;;;15.70;99.90;;;;;;5004145;28;20292;-69
2022/10/18 07:51:08;;;;;;;30.08;19.85;;;15.70;99.90;;;;;;4990594;28;20608;-68
2022/10/18 07:53:36;;;;;;;24.10;17.92;;;15.70;1.00;;;;;;5000740;28;20615;-68
2022/10/18 07:56:06;;;;;;;24.73;17.63;;;15.80;99.90;;;;;;5032354;28;20209;-69
2022/10/18 07:58:35;;;;;;;27.40;18.58;;;15.90;99.90;;;;;;5002451;28;20215;-67
2022/10/18 08:01:06;;;;;;;32.92;21.60;;;15.90;1.00;;;;;;5017215;28;20197;-68
2022/10/18 08:03:34;;;;;;;24.13;17.85;;;15.80;99.90;;;;;;5032835;28;20219;-68
2022/10/18 08:06:02;;;;;;;28.45;17.42;;;15.80;99.90;;;;;;5000392;28;20263;-68
2022/10/18 08:08:30;;;;;;;29.88;18.15;;;15.90;1.00;;;;;;5006053;28;20232;-67
2022/10/18 08:11:24;;;;;;;27.00;17.30;;;15.90;86.90;;;;;;5000280;28;20198;-67
2022/10/18 08:13:52;;;;;;;32.17;20.60;;;15.90;1.00;;;;;;5003833;28;20599;-68
2022/10/18 08:16:25;;;;;;;32.17;22.27;;;16.00;1.00;;;;;;5033985;28;20911;-68
2022/10/18 08:18:53;;;;;;;32.88;21.55;;;16.00;1.00;;;;;;5002662;28;20197;-67
2022/10/18 08:21:20;;;;;;;26.33;17.98;;;16.00;1.00;;;;;;4998136;28;20396;-68
2022/10/18 08:23:48;;;;;;;30.45;19.63;;;16.00;1.00;;;;;;4999393;28;20622;-69
2022/10/18 08:26:18;;;;;;;30.73;19.55;;;16.20;1.00;;;;;;5015798;28;20203;-69
2022/10/18 08:28:46;;;;;;;34.15;20.10;;;16.10;1.00;;;;;;5000543;28;20740;-68
2022/10/18 08:31:29;;;;;;;35.15;22.05;;;16.10;1.00;;;;;;5006404;28;20189;-68
2022/10/18 08:33:56;;;;;;;36.70;24.15;;;16.20;1.00;;;;;;4999316;28;20205;-68
2022/10/18 08:36:23;;;;;;;40.30;24.85;;;16.10;99.90;;;;;;5005254;28;20284;-68
2022/10/18 08:38:51;;;;;;;37.70;26.33;;;16.10;99.90;;;;;;5000094;28;20201;-68
2022/10/18 08:41:29;;;;;;;36.75;26.10;;;16.10;99.90;;;;;;5016518;28;20236;-69
2022/10/18 08:44:11;;;;;;;41.67;26.42;;;16.20;99.90;;;;;;5031235;28;22889;-68
2022/10/18 08:46:43;;;;;;;34.25;23.42;;;16.30;99.90;;;;;;5000012;28;20973;-68
2022/10/18 08:49:30;;;;;;;42.15;27.90;;;16.40;99.90;;;;;;5034135;28;20193;-68
2022/10/18 08:51:57;;;;;;;39.25;26.70;;;16.50;1.00;;;;;;4998456;28;20798;-69
2022/10/18 08:54:37;;;;;;;41.35;26.58;;;16.50;99.90;;;;;;4997895;28;20264;-70
2022/10/18 08:57:13;;;;;;;39.17;27.60;;;16.50;99.90;;;;;;5018282;28;20201;-68
2022/10/18 08:59:41;;;;;;;34.25;24.52;;;16.50;1.00;;;;;;5030265;28;20200;-69
2022/10/18 09:02:37;;;;;;;36.35;27.23;;;16.50;1.00;;;;;;4997254;28;20193;-68
2022/10/18 09:05:31;;;;;;;44.55;30.67;;;16.50;1.00;;;;;;4980864;28;20247;-67
2022/10/18 09:08:25;;;;;;;42.88;29.55;;;16.60;1.00;;;;;;5002021;28;20229;-68
2022/10/18 09:11:05;;;;;;;43.65;29.83;;;16.60;1.00;;;;;;4998554;28;20236;-67
2022/10/18 09:13:56;;;;;;;40.33;30.58;;;16.50;1.00;;;;;;5014904;28;20786;-69
2022/10/18 09:16:25;;;;;;;48.55;32.42;;;16.60;1.00;;;;;;5030555;28;20301;-68
2022/10/18 09:18:56;;;;;;;47.95;30.63;;;16.60;99.90;;;;;;5030363;28;20212;-69
2022/10/18 09:21:29;;;;;;;44.50;31.50;;;16.60;99.90;;;;;;4998372;28;20564;-68
2022/10/18 09:24:21;;;;;;;41.72;31.35;;;16.80;99.90;;;;;;4996317;28;20213;-69
2022/10/18 09:26:55;;;;;;;44.10;33.15;;;16.90;1.00;;;;;;5013606;28;20209;-68
2022/10/18 09:29:41;;;;;;;42.08;32.13;;;16.90;1.00;;;;;;5015084;28;20630;-68
2022/10/18 09:32:11;;;;;;;41.60;29.88;;;17.00;1.00;;;;;;4998058;28;20197;-68
2022/10/18 09:34:50;;;;;;;41.08;29.05;;;17.20;99.90;;;;;;5029264;28;20204;-68
2022/10/18 09:37:19;;;;;;;39.33;29.00;;;17.30;1.00;;;;;;5003377;28;20339;-68
2022/10/18 09:39:49;;;;;;;38.67;29.33;;;17.40;99.90;;;;;;5014125;28;20201;-68
2022/10/18 09:42:28;;;;;;;41.30;27.95;;;17.60;84.30;;;;;;5000142;28;20774;-67
2022/10/18 09:45:03;;;;;;;42.65;31.48;;;17.70;1.00;;;;;;4998065;28;20645;-67
2022/10/18 09:47:52;;;;;;;40.20;32.80;;;17.70;1.00;;;;;;5001218;28;20201;-67
2022/10/18 09:50:37;;;;;;;35.67;29.08;;;17.90;1.00;;;;;;5030247;28;20180;-68
2022/10/18 09:53:19;;;;;;;35.00;26.20;;;18.10;99.90;;;;;;4996820;28;20830;-69
2022/10/18 09:56:02;;;;;;;36.08;26.13;;;18.40;1.00;;;;;;4999937;28;20719;-68
2022/10/18 09:58:48;;;;;;;31.50;26.08;;;19.00;1.00;;;;;;5031307;28;20565;-68
2022/10/18 10:01:19;;;;;;;34.80;26.77;;;19.60;40.30;;;;;;5031655;28;20276;-68
2022/10/18 10:03:46;;;;;;;31.23;26.15;;;20.10;1.00;;;;;;5015309;28;20253;-68
2022/10/18 10:06:26;;;;;;;30.45;25.30;;;21.90;99.90;;;;;;5003827;28;20717;-68
2022/10/18 10:08:54;;;;;;;26.80;23.33;;;22.30;99.90;;;;;;4983166;28;20204;-69
2022/10/18 10:11:38;;;;;;;29.92;22.17;;;22.30;45.70;;;;;;4998874;28;20614;-68
2022/10/18 10:14:24;;;;;;;28.98;22.77;;;23.40;1.00;;;;;;5028810;28;20575;-68
2022/10/18 10:17:02;;;;;;;29.63;23.70;;;23.90;1.00;;;;;;4998221;28;20219;-68
2022/10/18 10:19:40;;;;;;;25.35;22.00;;;23.10;1.00;;;;;;5030988;28;20757;-69
2022/10/18 10:22:12;;;;;;;26.83;21.00;;;23.80;1.00;;;;;;5014687;28;20562;-68
2022/10/18 10:24:52;;;;;;;34.53;21.90;;;23.00;1.00;;;;;;4995658;28;20214;-69
2022/10/18 10:27:42;;;;;;;25.75;21.13;;;22.00;1.00;;;;;;5030291;28;20224;-68
2022/10/18 10:30:25;;;;;;;25.15;19.70;;;21.40;38.20;;;;;;4999361;28;20275;-68
2022/10/18 10:32:53;;;;;;;24.77;21.35;;;20.80;60.30;;;;;;4998174;28;20267;-69
2022/10/18 10:35:32;;;;;;;26.75;21.45;;;20.50;99.90;;;;;;5009540;28;20196;-68
2022/10/18 10:38:25;;;;;;;28.63;23.20;;;20.20;99.90;;;;;;4998761;28;20209;-68
2022/10/18 10:40:53;;;;;;;28.95;24.30;;;20.00;99.90;;;;;;4997790;28;20543;-68
2022/10/18 10:43:30;;;;;;;28.05;23.45;;;20.20;99.90;;;;;;5002501;28;20209;-68
2022/10/18 10:46:10;;;;;;;30.48;22.55;;;20.20;99.90;;;;;;5012508;28;20203;-68
2022/10/18 10:48:47;;;;;;;31.25;24.40;;;19.80;99.90;;;;;;4999495;28;20255;-68
2022/10/18 10:51:37;;;;;;;30.02;23.55;;;19.40;99.90;;;;;;5027731;28;20657;-68
2022/10/18 10:54:15;;;;;;;34.53;23.83;;;19.10;99.90;;;;;;4987184;28;20228;-70
2022/10/18 10:57:00;;;;;;;28.23;23.42;;;19.00;99.90;;;;;;5003601;28;20204;-69
2022/10/18 10:59:31;;;;;;;27.33;21.70;;;19.00;1.00;;;;;;4997804;28;20232;-70
2022/10/18 11:02:20;;;;;;;34.42;24.45;;;19.10;1.00;;;;;;5011747;28;20295;-69
2022/10/18 11:04:53;;;;;;;25.90;21.45;;;19.10;1.00;;;;;;4996970;28;20224;-70
2022/10/18 11:07:38;;;;;;;28.42;22.38;;;19.00;1.00;;;;;;4997343;28;20249;-68
2022/10/18 11:10:10;;;;;;;27.08;21.95;;;19.10;99.90;;;;;;5011748;28;20206;-68
2022/10/18 11:12:44;;;;;;;24.42;20.40;;;19.10;99.90;;;;;;4996282;28;20247;-69
2022/10/18 11:15:14;;;;;;;30.38;23.02;;;19.00;99.90;;;;;;4999135;28;20279;-69
2022/10/18 11:18:15;;;;;;;29.88;24.25;;;18.90;99.90;;;;;;4998967;28;20676;-68
2022/10/18 11:20:55;;;;;;;28.83;23.27;;;18.70;99.90;;;;;;5027340;28;20718;-68
2022/10/18 11:23:28;;;;;;;30.25;23.70;;;18.70;99.90;;;;;;5025906;28;20197;-68
2022/10/18 11:26:10;;;;;;;31.05;22.48;;;18.60;99.90;;;;;;5009127;28;20202;-68
2022/10/18 11:28:56;;;;;;;29.10;23.05;;;18.60;99.90;;;;;;5011246;28;20729;-68
2022/10/18 11:31:38;;;;;;;28.05;22.08;;;18.70;1.00;;;;;;5003716;28;21191;-68
2022/10/18 11:34:28;;;;;;;31.83;22.60;;;18.70;99.90;;;;;;5013734;28;20657;-68
2022/10/18 11:37:35;;;;;;;26.85;20.92;;;18.90;99.90;;;;;;4995700;28;20208;-68
2022/10/18 11:40:28;;;;;;;23.30;18.33;;;18.90;99.90;;;;;;5000856;28;20236;-69
2022/10/18 11:43:23;;;;;;;26.92;21.35;;;19.00;99.90;;;;;;5028557;28;20602;-69
2022/10/18 11:46:07;;;;;;;28.67;22.05;;;19.10;99.90;;;;;;4995907;28;20330;-69
2022/10/18 11:48:36;;;;;;;23.48;18.58;;;19.50;99.90;;;;;;5026586;28;20289;-69
2022/10/18 11:51:33;;;;;;;24.50;17.20;;;21.80;4.20;;;;;;4999832;28;20343;-69
2022/10/18 11:54:32;;;;;;;19.90;16.00;;;23.60;1.00;;;;;;4996454;28;20272;-69
2022/10/18 11:57:15;;;;;;;23.08;17.65;;;22.90;1.00;;;;;;5029890;28;20276;-69
2022/10/18 11:59:59;;;;;;;21.42;18.23;;;22.20;1.00;;;;;;5000231;28;20760;-69
2022/10/18 12:02:42;;;;;;;27.60;17.65;;;21.70;1.00;;;;;;5002883;28;20207;-69
2022/10/18 12:05:11;;;;;;;20.63;15.98;;;20.90;1.00;;;;;;5014967;28;20217;-68
2022/10/18 12:08:01;;;;;;;26.92;18.25;;;20.60;1.00;;;;;;5005431;28;20306;-69
2022/10/18 12:10:32;;;;;;;23.52;18.42;;;20.40;1.00;;;;;;4999682;28;20204;-69
2022/10/18 12:13:39;;;;;;;23.35;17.48;;;20.30;1.00;;;;;;5017249;28;20201;-68
2022/10/18 12:16:08;;;;;;;18.25;15.88;;;20.80;1.00;;;;;;5030668;28;20290;-69
2022/10/18 12:18:42;;;;;;;18.50;14.15;;;20.70;1.00;;;;;;5002542;28;20203;-69
2022/10/18 12:21:12;;;;;;;21.67;15.15;;;21.10;1.00;;;;;;4997475;28;20215;-68
2022/10/18 12:23:56;;;;;;;19.20;14.93;;;21.60;1.00;;;;;;5032546;28;20245;-68
2022/10/18 12:26:27;;;;;;;15.40;13.27;;;21.80;1.00;;;;;;4996280;28;20220;-69
2022/10/18 12:29:06;;;;;;;18.50;12.00;;;22.90;1.00;;;;;;5000062;28;20276;-69
2022/10/18 12:31:45;;;;;;;13.88;10.55;;;23.90;1.00;;;;;;5012779;28;20621;-69
2022/10/18 12:34:21;;;;;;;13.15;9.80;;;24.70;1.00;;;;;;5012571;28;20719;-70
2022/10/18 12:37:16;;;;;;;15.38;10.27;;;24.90;1.00;;;;;;5012666;28;20216;-69
2022/10/18 12:39:56;;;;;;;19.00;9.75;;;24.40;1.00;;;;;;5014857;28;20194;-70
2022/10/18 12:42:50;;;;;;;16.35;10.63;;;23.70;1.00;;;;;;4996957;28;20189;-69
2022/10/18 12:45:22;;;;;;;12.65;8.70;;;23.30;1.00;;;;;;4998839;28;20223;-69
2022/10/18 12:47:50;;;;;;;9.90;7.03;;;23.40;1.00;;;;;;5013298;28;20235;-69
2022/10/18 12:50:37;;;;;;;14.77;9.00;;;23.00;1.00;;;;;;4996656;28;20192;-69
2022/10/18 12:53:25;;;;;;;14.82;8.52;;;22.70;1.00;;;;;;5013743;28;20618;-70
2022/10/18 12:55:53;;;;;;;18.20;9.07;;;22.70;1.00;;;;;;4997845;28;20263;-69
2022/10/18 12:58:22;;;;;;;17.67;8.20;;;22.30;1.00;;;;;;4997365;28;20198;-69
2022/10/18 13:00:49;;;;;;;17.00;9.93;;;22.30;1.00;;;;;;4995822;28;20685;-68
2022/10/18 13:03:16;;;;;;;15.95;9.68;;;22.50;1.00;;;;;;5001309;28;20202;-69